Time;durP1;ratioP1;P1;durP2;ratioP2;P2;SDS_P1;SDS_P2;PMS_P1;PMS_P2;Temp;Humidity;BMP_temperature;BMP_pressure;BME280_temperature;BME280_humidity;BME280_pressure;Samples;Min_cycle;Max_cycle;Signal;HPM_P1;HPM_P2
2021/08/16 00:00:46;;;;;;;1999.90;999.90;;;;;;;18.02;76.43;95756.88;4990057;28;20210;-70
2021/08/16 00:03:14;;;;;;;1999.90;999.90;;;;;;;18.04;76.31;95754.66;4989935;28;20199;-71
2021/08/16 00:05:42;;;;;;;1999.90;999.90;;;;;;;18.10;76.01;95758.59;4989770;28;20741;-71
2021/08/16 00:08:10;;;;;;;1999.90;999.90;;;;;;;18.15;76.41;95757.59;4989829;28;20257;-70
2021/08/16 00:10:38;;;;;;;1999.90;999.90;;;;;;;18.00;76.85;95744.06;4989761;28;20237;-71
2021/08/16 00:13:06;;;;;;;1999.90;999.90;;;;;;;17.97;77.20;95744.72;4989737;28;20720;-71
2021/08/16 00:15:34;;;;;;;1999.90;999.90;;;;;;;18.13;77.20;95746.66;4989718;28;20199;-70
2021/08/16 00:18:02;;;;;;;1999.90;999.90;;;;;;;18.22;76.26;95742.78;4989347;28;20264;-71
2021/08/16 00:20:29;;;;;;;1999.90;999.90;;;;;;;18.34;75.66;95744.56;4988837;28;20333;-71
2021/08/16 00:22:58;;;;;;;1999.90;999.90;;;;;;;18.34;75.53;95740.06;4989326;28;20195;-71
2021/08/16 00:25:25;;;;;;;1999.90;999.90;;;;;;;18.39;75.47;95739.84;4989658;28;20304;-71
2021/08/16 00:27:52;;;;;;;1999.90;999.90;;;;;;;18.50;75.30;95740.13;4989538;28;20235;-71
2021/08/16 00:30:20;;;;;;;1999.90;999.90;;;;;;;18.54;75.40;95746.25;4989064;28;20207;-70
2021/08/16 00:32:47;;;;;;;1999.90;999.90;;;;;;;18.56;75.37;95757.22;4989450;28;20329;-70
2021/08/16 00:35:14;;;;;;;1999.90;999.90;;;;;;;18.40;75.56;95754.53;4989405;28;20203;-70
2021/08/16 00:37:41;;;;;;;1999.90;999.90;;;;;;;18.11;76.20;95752.25;4989559;28;20199;-71
2021/08/16 00:40:11;;;;;;;1999.90;999.90;;;;;;;17.92;76.21;95750.22;4989329;28;20225;-70
2021/08/16 00:42:40;;;;;;;1999.90;999.90;;;;;;;17.93;76.47;95738.59;4989659;28;20264;-70
2021/08/16 00:45:09;;;;;;;1999.90;999.90;;;;;;;17.88;76.84;95738.81;4989022;28;20207;-70
2021/08/16 00:47:38;;;;;;;1999.90;999.90;;;;;;;17.85;77.38;95741.34;4988848;28;20312;-71
2021/08/16 00:50:06;;;;;;;1999.90;999.90;;;;;;;17.67;77.94;95747.97;5052936;28;20265;-71
2021/08/16 00:52:33;;;;;;;1999.90;999.90;;;;;;;17.54;77.85;95742.69;5091484;28;20632;-71
2021/08/16 00:55:01;;;;;;;1999.90;999.90;;;;;;;17.44;77.79;95748.41;5090639;28;20196;-71
2021/08/16 00:57:31;;;;;;;1999.90;999.90;;;;;;;17.39;77.81;95747.84;5091546;28;20675;-71
2021/08/16 01:00:00;;;;;;;1999.90;999.90;;;;;;;17.36;78.78;95738.78;5091324;28;20200;-72
2021/08/16 01:02:28;;;;;;;1999.90;999.90;;;;;;;17.32;79.79;95745.03;5091448;28;20279;-71
2021/08/16 01:04:56;;;;;;;1999.90;999.90;;;;;;;17.34;80.06;95748.09;5091226;28;20192;-71
2021/08/16 01:07:23;;;;;;;1999.90;999.90;;;;;;;17.28;79.88;95747.56;5091067;28;20224;-70
2021/08/16 01:09:50;;;;;;;1999.90;999.90;;;;;;;17.31;79.63;95744.28;5091169;28;20202;-71
2021/08/16 01:12:17;;;;;;;1999.90;999.90;;;;;;;17.43;79.61;95740.88;5090824;28;20199;-70
2021/08/16 01:14:45;;;;;;;1999.90;999.90;;;;;;;17.59;78.74;95737.25;5091280;28;20253;-71
2021/08/16 01:17:13;;;;;;;1999.90;999.90;;;;;;;17.68;79.02;95739.78;5091172;28;20728;-70
2021/08/16 01:19:41;;;;;;;1999.90;999.90;;;;;;;17.76;78.01;95744.13;5091210;28;20584;-70
2021/08/16 01:22:08;;;;;;;1999.90;999.90;;;;;;;17.87;76.42;95739.16;5090825;28;20742;-72
2021/08/16 01:24:36;;;;;;;1999.90;999.90;;;;;;;17.99;75.32;95737.25;5091131;28;20299;-71
2021/08/16 01:27:09;;;;;;;1999.90;999.90;;;;;;;17.95;75.78;95733.78;5090641;28;20203;-71
2021/08/16 01:29:37;;;;;;;1999.90;999.90;;;;;;;17.65;75.73;95743.03;5090871;28;20228;-71
2021/08/16 01:32:05;;;;;;;1999.90;999.90;;;;;;;17.44;76.29;95737.13;5090936;28;20638;-71
2021/08/16 01:34:32;;;;;;;1999.90;999.90;;;;;;;17.25;76.67;95742.19;5091049;28;20196;-71
2021/08/16 01:37:00;;;;;;;1999.90;999.90;;;;;;;17.08;77.88;95732.69;5090442;28;20249;-71
2021/08/16 01:39:28;;;;;;;1999.90;999.90;;;;;;;16.91;78.87;95736.28;5090819;28;20248;-71
2021/08/16 01:41:56;;;;;;;1999.90;999.90;;;;;;;16.91;79.55;95736.28;5090456;28;20653;-71
2021/08/16 01:44:25;;;;;;;1999.90;999.90;;;;;;;16.94;79.66;95735.59;5090661;28;20199;-71
2021/08/16 01:46:53;;;;;;;1999.90;999.90;;;;;;;16.94;80.21;95737.47;5090648;28;20248;-71
2021/08/16 01:49:20;;;;;;;1999.90;999.90;;;;;;;16.93;79.63;95739.34;5058274;28;20235;-71
2021/08/16 01:51:48;;;;;;;1999.90;999.90;;;;;;;16.77;80.66;95744.47;4988312;28;20249;-71
2021/08/16 01:54:16;;;;;;;1999.90;999.90;;;;;;;16.57;80.95;95744.50;4988244;28;20226;-71
2021/08/16 01:56:43;;;;;;;1999.90;999.90;;;;;;;16.64;80.03;95737.66;4988051;28;20207;-71
2021/08/16 01:59:11;;;;;;;1999.90;999.90;;;;;;;16.52;80.74;95742.09;4987903;28;20210;-71
2021/08/16 02:01:40;;;;;;;1999.90;999.90;;;;;;;16.48;80.75;95734.09;4982311;28;20211;-71
2021/08/16 02:04:07;;;;;;;1999.90;999.90;;;;;;;16.39;81.32;95732.66;4972843;28;20211;-71
2021/08/16 02:06:34;;;;;;;1999.90;999.90;;;;;;;16.39;82.05;95732.66;5000106;28;20202;-71
2021/08/16 02:09:01;;;;;;;1999.90;999.90;;;;;;;16.48;82.03;95730.72;5006614;28;20226;-72
2021/08/16 02:11:29;;;;;;;1999.90;999.90;;;;;;;16.42;82.30;95739.88;5006399;28;20747;-71
2021/08/16 02:13:56;;;;;;;1999.90;999.90;;;;;;;16.38;82.59;95731.13;5007539;28;20311;-71
2021/08/16 02:16:23;;;;;;;1999.90;999.90;;;;;;;16.32;83.25;95752.31;5007193;28;20194;-71
2021/08/16 02:18:51;;;;;;;1999.90;999.90;;;;;;;16.33;82.87;95738.09;5007134;28;20191;-71
2021/08/16 02:21:18;;;;;;;1999.90;999.90;;;;;;;16.37;82.69;95730.34;5007147;28;20199;-71
2021/08/16 02:23:45;;;;;;;1999.90;999.90;;;;;;;16.31;82.83;95737.66;5007179;28;20580;-71
2021/08/16 02:26:12;;;;;;;1999.90;999.90;;;;;;;16.08;84.20;95746.19;5006975;28;20198;-71
2021/08/16 02:28:39;;;;;;;1999.90;999.90;;;;;;;16.16;84.27;95742.72;5007033;28;20227;-72
2021/08/16 02:31:06;;;;;;;1999.90;999.90;;;;;;;16.08;83.99;95739.09;5007190;28;20693;-71
2021/08/16 02:33:33;;;;;;;1999.90;999.90;;;;;;;16.04;84.45;95753.19;5006964;28;20230;-71
2021/08/16 02:36:02;;;;;;;1999.90;999.90;;;;;;;16.08;84.14;95746.97;5007139;28;20202;-71
2021/08/16 02:38:29;;;;;;;1999.90;999.90;;;;;;;16.05;84.44;95744.97;5006728;28;20226;-71
2021/08/16 02:40:56;;;;;;;1999.90;999.90;;;;;;;16.10;84.77;95746.63;5007244;28;20631;-71
2021/08/16 02:43:27;;;;;;;1999.90;999.90;;;;;;;16.04;84.50;95751.31;5006646;28;20248;-72
2021/08/16 02:45:54;;;;;;;1999.90;999.90;;;;;;;16.11;84.34;95748.16;5006736;28;20655;-71
2021/08/16 02:48:21;;;;;;;1999.90;999.90;;;;;;;16.09;84.63;95752.97;5006697;28;20230;-71
2021/08/16 02:50:48;;;;;;;1999.90;999.90;;;;;;;15.84;82.12;95755.47;4988603;28;20203;-71
2021/08/16 02:53:16;;;;;;;1999.90;999.90;;;;;;;15.63;84.50;95751.31;4987016;28;20204;-71
2021/08/16 02:55:44;;;;;;;1999.90;999.90;;;;;;;15.74;85.13;95749.84;4987367;28;20208;-72
2021/08/16 02:58:11;;;;;;;1999.90;999.90;;;;;;;15.91;84.84;95753.09;4987471;28;20210;-71
2021/08/16 03:00:38;;;;;;;1999.90;999.90;;;;;;;15.78;85.23;95758.63;4987178;28;20631;-71
2021/08/16 03:03:05;;;;;;;1999.90;999.90;;;;;;;15.36;85.11;95750.66;4986960;28;20200;-71
2021/08/16 03:05:32;;;;;;;1999.90;999.90;;;;;;;15.46;84.72;95746.91;4987240;28;20232;-71
2021/08/16 03:07:59;;;;;;;1999.90;999.90;;;;;;;15.42;84.52;95749.41;4987160;28;20261;-71
2021/08/16 03:10:27;;;;;;;1999.90;999.90;;;;;;;15.43;84.62;95748.31;4987145;28;20284;-71
2021/08/16 03:12:54;;;;;;;1999.90;999.90;;;;;;;15.40;85.43;95741.09;4987002;28;20211;-71
2021/08/16 03:15:22;;;;;;;1999.90;999.90;;;;;;;15.37;85.92;95746.97;4987197;28;20208;-71
2021/08/16 03:17:49;;;;;;;1999.90;999.90;;;;;;;15.30;86.23;95749.31;4989352;28;20697;-71
2021/08/16 03:20:16;;;;;;;1999.90;999.90;;;;;;;15.22;86.77;95744.91;4990155;28;20198;-71
2021/08/16 03:22:43;;;;;;;1999.90;999.90;;;;;;;15.17;87.17;95754.78;4990600;28;20198;-71
2021/08/16 03:25:11;;;;;;;1999.90;999.90;;;;;;;15.29;87.16;95745.16;4990233;28;20276;-71
2021/08/16 03:27:40;;;;;;;1999.90;999.90;;;;;;;15.36;87.21;95745.44;4989971;28;20600;-71
2021/08/16 03:30:09;;;;;;;1999.90;999.90;;;;;;;15.38;87.01;95751.13;4990487;28;20203;-71
2021/08/16 03:32:36;;;;;;;1999.90;999.90;;;;;;;15.31;87.29;95750.06;4989945;28;20569;-71
2021/08/16 03:35:04;;;;;;;1999.90;999.90;;;;;;;15.30;87.74;95751.94;4989995;28;20199;-71
2021/08/16 03:37:34;;;;;;;1999.90;999.90;;;;;;;15.28;87.70;95756.72;4990191;28;20206;-71
2021/08/16 03:40:03;;;;;;;1999.90;999.90;;;;;;;15.22;87.58;95758.00;4990191;28;20188;-71
2021/08/16 03:42:30;;;;;;;1999.90;999.90;;;;;;;15.15;87.06;95749.84;4990022;28;20198;-71
2021/08/16 03:44:59;;;;;;;1999.90;999.90;;;;;;;15.22;87.04;95758.00;4989100;28;20206;-72
2021/08/16 03:47:26;;;;;;;1999.90;999.90;;;;;;;15.27;88.03;95755.19;4970792;28;20286;-72
2021/08/16 03:49:54;;;;;;;1999.90;999.90;;;;;;;15.39;87.93;95760.50;4980739;28;20242;-70
2021/08/16 03:52:21;;;;;;;1999.90;999.90;;;;;;;15.37;87.55;95764.53;4989465;28;20667;-69
2021/08/16 03:54:48;;;;;;;1999.90;999.90;;;;;;;15.41;86.64;95755.72;4989718;28;20675;-70
2021/08/16 03:57:15;;;;;;;1999.90;999.90;;;;;;;15.36;86.94;95757.75;4989929;28;21013;-72
2021/08/16 03:59:42;;;;;;;1999.90;999.90;;;;;;;15.41;86.74;95766.19;4989735;28;20264;-69
2021/08/16 04:02:11;;;;;;;1999.90;999.90;;;;;;;15.39;87.49;95767.63;4989801;28;20908;-70
2021/08/16 04:04:38;;;;;;;1999.90;999.90;;;;;;;15.35;87.00;95770.06;4989051;28;20199;-70
2021/08/16 04:07:05;;;;;;;1999.90;999.90;;;;;;;15.32;87.58;95764.72;4987747;28;20226;-70
2021/08/16 04:09:32;;;;;;;1999.90;999.90;;;;;;;15.39;87.50;95770.22;4989027;28;20239;-70
2021/08/16 04:11:59;;;;;;;1999.90;999.90;;;;;;;15.48;87.22;95766.47;4989452;28;20195;-66
2021/08/16 04:14:26;;;;;;;1999.90;999.90;;;;;;;15.81;87.19;95773.69;4989662;28;20215;-67
2021/08/16 04:16:53;;;;;;;1999.90;999.90;;;;;;;16.18;85.73;95770.19;4989707;28;20196;-68
2021/08/16 04:19:22;;;;;;;1999.90;999.90;;;;;;;16.59;82.58;95769.34;4989418;28;21038;-67
2021/08/16 04:21:49;;;;;;;1999.90;999.90;;;;;;;16.92;81.68;95774.56;4989474;28;20199;-67
2021/08/16 04:24:17;;;;;;;1999.90;999.90;;;;;;;17.41;78.33;95771.97;4989660;28;20210;-68
2021/08/16 04:26:44;;;;;;;1999.90;999.90;;;;;;;17.81;77.53;95778.06;4989165;28;20678;-68
2021/08/16 04:29:11;;;;;;;1999.90;999.90;;;;;;;18.15;75.93;95776.78;4988530;28;20737;-67
2021/08/16 04:31:38;;;;;;;1999.90;999.90;;;;;;;18.57;73.60;95773.78;4989526;28;20203;-67
2021/08/16 04:34:06;;;;;;;1999.90;999.90;;;;;;;18.82;71.22;95778.59;4989196;28;20842;-67
2021/08/16 04:36:34;;;;;;;1999.90;999.90;;;;;;;19.07;69.59;95768.66;4989472;28;20207;-68
2021/08/16 04:39:01;;;;;;;1999.90;999.90;;;;;;;19.08;70.69;95778.06;4989328;28;20203;-68
2021/08/16 04:41:29;;;;;;;1999.90;999.90;;;;;;;19.22;72.31;95782.94;4989277;28;20264;-67
2021/08/16 04:43:56;;;;;;;1999.90;999.90;;;;;;;19.43;69.56;95780.03;4989277;28;20671;-66
2021/08/16 04:46:23;;;;;;;1999.90;999.90;;;;;;;19.86;69.58;95779.09;4989302;28;20199;-67
2021/08/16 04:48:50;;;;;;;1999.90;999.90;;;;;;;19.95;67.58;95782.31;4988706;28;20239;-68
2021/08/16 04:51:18;;;;;;;1999.90;999.90;;;;;;;20.20;65.92;95780.94;4988847;28;20192;-67
2021/08/16 04:53:46;;;;;;;1999.90;999.90;;;;;;;20.37;65.94;95775.28;4989054;28;20634;-66
2021/08/16 04:56:13;;;;;;;1999.90;999.90;;;;;;;20.40;66.90;95773.81;4988806;28;20749;-67
2021/08/16 04:58:40;;;;;;;1999.90;999.90;;;;;;;20.54;66.42;95777.47;4988639;28;20195;-68
2021/08/16 05:01:07;;;;;;;1999.90;999.90;;;;;;;20.38;67.58;95789.22;4988679;28;20207;-69
2021/08/16 05:03:34;;;;;;;1999.90;999.90;;;;;;;20.34;68.61;95786.50;4988946;28;20199;-70
2021/08/16 05:06:06;;;;;;;1999.90;999.90;;;;;;;20.18;69.56;95783.16;4988549;28;20215;-71
2021/08/16 05:08:35;;;;;;;1999.90;999.90;;;;;;;20.03;70.49;95786.59;4988519;28;20302;-70
2021/08/16 05:11:03;;;;;;;1999.90;999.90;;;;;;;19.78;71.08;95799.28;4988683;28;20200;-70
2021/08/16 05:13:30;;;;;;;1999.90;999.90;;;;;;;19.88;71.61;95796.09;4988740;28;20249;-70
2021/08/16 05:15:58;;;;;;;1999.90;999.90;;;;;;;19.80;73.09;95791.03;4988320;28;20203;-70
2021/08/16 05:18:25;;;;;;;1999.90;999.90;;;;;;;19.62;73.82;95791.41;4988475;28;20239;-70
2021/08/16 05:20:53;;;;;;;1999.90;999.90;;;;;;;19.84;72.42;95792.63;4988388;28;20195;-70
2021/08/16 05:23:20;;;;;;;1999.90;999.90;;;;;;;19.94;72.00;95786.03;4988180;28;20191;-70
2021/08/16 05:25:47;;;;;;;1999.90;999.90;;;;;;;20.08;71.15;95788.97;4988547;28;20639;-70
2021/08/16 05:28:16;;;;;;;1999.90;999.90;;;;;;;20.32;70.84;95791.41;4988374;28;20195;-70
2021/08/16 05:30:43;;;;;;;1999.90;999.90;;;;;;;20.44;71.79;95785.19;4988477;28;20204;-71
2021/08/16 05:33:10;;;;;;;1999.90;999.90;;;;;;;20.69;71.91;95781.13;4988299;28;20727;-71
2021/08/16 05:35:37;;;;;;;1999.90;999.90;;;;;;;20.60;72.94;95783.22;4988221;28;20199;-71
2021/08/16 05:38:05;;;;;;;1999.90;999.90;;;;;;;20.80;72.81;95778.69;4988407;28;20199;-69
2021/08/16 05:40:32;;;;;;;1999.90;999.90;;;;;;;20.93;72.15;95785.31;4987245;28;20202;-69
2021/08/16 05:42:59;;;;;;;1999.90;999.90;;;;;;;20.98;71.59;95785.03;4988373;28;20211;-69
2021/08/16 05:45:28;;;;;;;1999.90;999.90;;;;;;;20.85;72.48;95784.44;4987940;28;20252;-69
2021/08/16 05:47:55;;;;;;;1999.90;999.90;;;;;;;20.92;71.39;95789.09;4988284;28;20199;-69
2021/08/16 05:50:23;;;;;;;1999.90;999.90;;;;;;;21.07;72.45;95787.44;4987694;28;20243;-69
2021/08/16 05:52:52;;;;;;;1999.90;999.90;;;;;;;21.01;70.87;95792.25;4988207;28;20203;-69
2021/08/16 05:55:20;;;;;;;1999.90;999.90;;;;;;;21.00;69.71;95785.44;4988203;28;20203;-69
2021/08/16 05:57:47;;;;;;;1999.90;999.90;;;;;;;21.21;67.33;95791.13;4987492;28;20203;-68
2021/08/16 06:00:18;;;;;;;1999.90;999.90;;;;;;;21.39;66.86;95789.50;4987620;28;20196;-69
2021/08/16 06:02:46;;;;;;;1999.90;999.90;;;;;;;21.61;66.44;95782.66;4987701;28;20644;-69
2021/08/16 06:05:14;;;;;;;1999.90;999.90;;;;;;;21.68;59.71;95782.72;4988120;28;20260;-69
2021/08/16 06:07:41;;;;;;;1999.90;999.90;;;;;;;22.01;56.41;95778.66;4988003;28;20218;-69
2021/08/16 06:10:09;;;;;;;1999.90;999.90;;;;;;;22.30;56.43;95789.25;4987758;28;20242;-70
2021/08/16 06:12:36;;;;;;;1999.90;999.90;;;;;;;22.51;55.81;95780.00;4987798;28;20203;-70
2021/08/16 06:15:04;;;;;;;1999.90;999.90;;;;;;;22.79;56.63;95779.56;4987791;28;20204;-70
2021/08/16 06:17:33;;;;;;;1999.90;999.90;;;;;;;22.95;56.11;95780.09;4987540;28;20687;-70
2021/08/16 06:20:01;;;;;;;1999.90;999.90;;;;;;;23.18;55.98;95791.28;4987585;28;20572;-71
2021/08/16 06:22:30;;;;;;;1999.90;999.90;;;;;;;23.40;54.08;95782.38;4987629;28;20256;-70
2021/08/16 06:24:57;;;;;;;1999.90;999.90;;;;;;;23.37;52.85;95787.63;4987954;28;20226;-70
2021/08/16 06:27:24;;;;;;;1999.90;999.90;;;;;;;23.61;52.38;95794.28;4987703;28;20276;-71
2021/08/16 06:29:51;;;;;;;1999.90;999.90;;;;;;;23.64;51.35;95796.19;4987685;28;20731;-71
2021/08/16 06:32:18;;;;;;;1999.90;999.90;;;;;;;23.81;50.13;95796.28;4987353;28;20671;-70
2021/08/16 06:34:45;;;;;;;1999.90;999.90;;;;;;;23.97;51.11;95796.75;4987399;28;20260;-71
2021/08/16 06:37:13;;;;;;;1999.90;999.90;;;;;;;24.10;50.55;95796.44;4987602;28;20199;-71
2021/08/16 06:39:43;;;;;;;1999.90;999.90;;;;;;;24.31;48.97;95793.91;4987675;28;20702;-71
2021/08/16 06:42:11;;;;;;;1999.90;999.90;;;;;;;24.44;49.00;95798.53;4987479;28;20294;-70
2021/08/16 06:44:38;;;;;;;1999.90;999.90;;;;;;;24.34;48.30;95795.81;4987467;28;20617;-69
2021/08/16 06:47:05;;;;;;;1999.90;999.90;;;;;;;24.16;48.51;95794.97;4987255;28;20294;-70
2021/08/16 06:49:32;;;;;;;1999.90;999.90;;;;;;;24.46;46.27;95794.75;4986986;28;20619;-70
2021/08/16 06:51:59;;;;;;;1999.90;999.90;;;;;;;24.81;44.35;95792.16;4986542;28;20260;-70
2021/08/16 06:54:28;;;;;;;1999.90;999.90;;;;;;;25.14;44.83;95793.75;4987561;28;20269;-69
2021/08/16 06:56:55;;;;;;;1999.90;999.90;;;;;;;25.46;44.32;95793.72;4987254;28;20203;-69
2021/08/16 06:59:22;;;;;;;1999.90;999.90;;;;;;;25.49;41.59;95793.75;4987464;28;20210;-69
2021/08/16 07:01:50;;;;;;;1999.90;999.90;;;;;;;25.66;42.14;95787.66;4987368;28;20211;-69
2021/08/16 07:04:18;;;;;;;1999.90;999.90;;;;;;;25.83;41.96;95788.00;4986987;28;20294;-70
2021/08/16 07:06:46;;;;;;;1999.90;999.90;;;;;;;26.03;43.21;95789.09;4987408;28;20199;-70
2021/08/16 07:09:13;;;;;;;1999.90;999.90;;;;;;;26.31;41.81;95786.34;4986976;28;20230;-70
2021/08/16 07:11:42;;;;;;;1999.90;999.90;;;;;;;26.25;40.42;95785.22;4986881;28;20206;-70
2021/08/16 07:14:09;;;;;;;1999.90;999.90;;;;;;;26.44;40.90;95782.13;4986799;28;20260;-70
2021/08/16 07:16:36;;;;;;;1999.90;999.90;;;;;;;26.53;40.51;95784.38;4987176;28;20207;-71
2021/08/16 07:19:03;;;;;;;1999.90;999.90;;;;;;;26.59;41.27;95782.06;4987087;28;20206;-71
2021/08/16 07:21:30;;;;;;;1999.90;999.90;;;;;;;26.55;40.81;95785.47;4986742;28;20195;-71
2021/08/16 07:23:57;;;;;;;1999.90;999.90;;;;;;;26.65;40.92;95791.16;4987089;28;20203;-71
2021/08/16 07:26:25;;;;;;;1999.90;999.90;;;;;;;26.70;42.43;95788.81;4986769;28;20210;-71
2021/08/16 07:28:53;;;;;;;1999.90;999.90;;;;;;;26.84;42.06;95788.75;4986866;28;20203;-71
2021/08/16 07:31:20;;;;;;;1999.90;999.90;;;;;;;27.18;40.80;95796.19;4986981;28;20353;-71
2021/08/16 07:33:47;;;;;;;1999.90;999.90;;;;;;;27.06;40.24;95784.06;4986800;28;20298;-71
2021/08/16 07:36:14;;;;;;;1999.90;999.90;;;;;;;27.12;40.83;95777.16;4986781;28;20583;-71
2021/08/16 07:38:42;;;;;;;1999.90;999.90;;;;;;;27.32;40.25;95782.72;4986948;28;20215;-71
2021/08/16 07:41:09;;;;;;;1999.90;999.90;;;;;;;27.46;39.39;95781.81;4986938;28;20545;-71
2021/08/16 07:43:36;;;;;;;1999.90;999.90;;;;;;;27.38;39.71;95776.56;4986654;28;20198;-72
2021/08/16 07:46:05;;;;;;;1999.90;999.90;;;;;;;27.38;38.64;95776.56;4986997;28;20233;-71
2021/08/16 07:48:32;;;;;;;1999.90;999.90;;;;;;;27.63;38.08;95775.59;4986501;28;20322;-71
2021/08/16 07:50:59;;;;;;;1999.90;999.90;;;;;;;27.75;38.35;95769.75;4986631;28;20207;-71
2021/08/16 07:53:26;;;;;;;1999.90;999.90;;;;;;;27.74;39.48;95762.91;4986642;28;20207;-71
2021/08/16 07:55:53;;;;;;;1999.90;999.90;;;;;;;27.88;38.46;95757.41;4986374;28;20203;-71
2021/08/16 07:58:20;;;;;;;1999.90;999.90;;;;;;;28.04;38.58;95754.94;4986491;28;20565;-71
2021/08/16 08:00:47;;;;;;;1999.90;999.90;;;;;;;28.27;37.47;95761.56;4986649;28;20663;-71
2021/08/16 08:03:16;;;;;;;1999.90;999.90;;;;;;;28.44;36.94;95757.94;4986596;28;20709;-71
2021/08/16 08:05:43;;;;;;;1999.90;999.90;;;;;;;28.52;37.08;95757.44;4989665;28;20204;-70
2021/08/16 08:08:10;;;;;;;1999.90;999.90;;;;;;;28.33;38.92;95754.63;4989148;28;20231;-71
2021/08/16 08:10:37;;;;;;;1999.90;999.90;;;;;;;28.59;38.07;95751.22;4989517;28;20235;-70
2021/08/16 08:13:04;;;;;;;1999.90;999.90;;;;;;;28.68;37.78;95760.25;4989321;28;20206;-71
2021/08/16 08:15:31;;;;;;;1999.90;999.90;;;;;;;29.01;35.38;95757.88;4989452;28;20210;-71
2021/08/16 08:17:58;;;;;;;1999.90;999.90;;;;;;;28.76;36.11;95760.19;4989607;28;20280;-71
2021/08/16 08:20:27;;;;;;;1999.90;999.90;;;;;;;28.82;36.47;95756.66;4989658;28;20234;-70
2021/08/16 08:22:54;;;;;;;1999.90;999.90;;;;;;;29.06;34.45;95755.50;4989427;28;20585;-71
2021/08/16 08:25:21;;;;;;;1999.90;999.90;;;;;;;29.37;34.06;95755.44;4989246;28;20199;-71
2021/08/16 08:27:48;;;;;;;1999.90;999.90;;;;;;;29.50;33.83;95748.31;4989563;28;20199;-71
2021/08/16 08:30:15;;;;;;;1999.90;999.90;;;;;;;29.68;33.73;95737.28;4989435;28;20230;-71
2021/08/16 08:32:47;;;;;;;1999.90;999.90;;;;;;;29.77;32.88;95732.13;4989446;28;20211;-71
2021/08/16 08:35:15;;;;;;;1999.90;999.90;;;;;;;30.06;33.77;95735.03;4989174;28;20200;-71
2021/08/16 08:37:43;;;;;;;1999.90;999.90;;;;;;;30.18;33.16;95732.50;4989261;28;20239;-71
2021/08/16 08:40:11;;;;;;;1999.90;999.90;;;;;;;30.36;32.64;95735.56;4989185;28;20625;-70
2021/08/16 08:42:39;;;;;;;1999.90;999.90;;;;;;;29.91;32.64;95727.28;4988973;28;20684;-71
2021/08/16 08:45:08;;;;;;;1999.90;999.90;;;;;;;29.77;32.55;95721.41;4989179;28;20203;-71
2021/08/16 08:47:36;;;;;;;1999.90;999.90;;;;;;;29.69;34.98;95726.16;4989233;28;20207;-71
2021/08/16 08:50:04;;;;;;;1999.90;999.90;;;;;;;30.00;33.48;95725.97;4988637;28;20235;-70
2021/08/16 08:52:31;;;;;;;1999.90;999.90;;;;;;;29.91;34.33;95721.94;4989161;28;20276;-71
2021/08/16 08:55:00;;;;;;;1999.90;999.90;;;;;;;29.86;35.28;95719.69;4988774;28;20260;-72
2021/08/16 08:57:31;;;;;;;1999.90;999.90;;;;;;;30.17;34.88;95714.16;4988927;28;20203;-71
2021/08/16 08:59:58;;;;;;;1999.90;999.90;;;;;;;30.50;34.26;95713.06;4988567;28;20195;-71
2021/08/16 09:02:25;;;;;;;1999.90;999.90;;;;;;;30.67;34.12;95717.28;4988670;28;20211;-71
2021/08/16 09:04:53;;;;;;;1999.90;999.90;;;;;;;30.57;35.06;95710.25;4988960;28;20218;-71
2021/08/16 09:07:31;;;;;;;1999.90;999.90;;;;;;;30.69;34.67;95711.50;4988625;28;20203;-71
2021/08/16 09:10:01;;;;;;;1999.90;999.90;;;;;;;30.69;33.37;95706.88;4988665;28;20302;-72
2021/08/16 09:12:34;;;;;;;1999.90;999.90;;;;;;;30.57;34.19;95704.13;4988505;28;20215;-71
2021/08/16 09:15:01;;;;;;;1999.90;999.90;;;;;;;30.54;34.78;95699.56;4988562;28;20594;-71
2021/08/16 09:17:33;;;;;;;1999.90;999.90;;;;;;;30.94;33.10;95700.94;4988552;28;20199;-70
2021/08/16 09:20:01;;;;;;;1999.90;999.90;;;;;;;30.58;34.03;95701.03;4988754;28;20675;-71
2021/08/16 09:22:33;;;;;;;1999.90;999.90;;;;;;;30.57;33.75;95696.81;4988416;28;20206;-71
2021/08/16 09:25:05;;;;;;;1999.90;999.90;;;;;;;30.90;33.98;95686.84;4988425;28;20277;-71
2021/08/16 09:27:33;;;;;;;1999.90;999.90;;;;;;;31.24;33.28;95685.66;4988704;28;20256;-71
2021/08/16 09:30:00;;;;;;;1999.90;999.90;;;;;;;31.05;34.34;95685.34;4990971;28;20698;-71
2021/08/16 09:32:32;;;;;;;1999.90;999.90;;;;;;;31.06;33.97;95676.13;4988598;28;20210;-71
2021/08/16 09:35:07;;;;;;;1999.90;999.90;;;;;;;31.29;34.14;95680.53;5006168;28;20275;-70
2021/08/16 09:37:34;;;;;;;1999.90;999.90;;;;;;;31.29;33.16;95669.78;5007887;28;20639;-71
2021/08/16 09:40:05;;;;;;;1999.90;999.90;;;;;;;31.28;34.13;95672.91;5008031;28;20217;-71
2021/08/16 09:42:47;;;;;;;1999.90;999.90;;;;;;;31.67;33.41;95678.03;5007543;28;20191;-70
2021/08/16 09:45:16;;;;;;;1999.90;999.90;;;;;;;31.47;32.22;95672.78;5005623;28;20601;-71
2021/08/16 09:47:44;;;;;;;1999.90;999.90;;;;;;;31.89;32.06;95664.72;4988075;28;20207;-71
2021/08/16 09:50:12;;;;;;;1999.90;999.90;;;;;;;32.17;31.95;95665.88;4987628;28;20239;-71
2021/08/16 09:52:41;;;;;;;1999.90;999.90;;;;;;;32.36;31.94;95660.28;4988492;28;20203;-71
2021/08/16 09:55:11;;;;;;;1999.90;999.90;;;;;;;32.19;30.54;95666.19;4988357;28;20239;-71
2021/08/16 09:57:39;;;;;;;1999.90;999.90;;;;;;;32.42;29.44;95663.97;4988510;28;20575;-70
2021/08/16 10:00:08;;;;;;;1999.90;999.90;;;;;;;32.16;30.83;95661.69;4988122;28;20210;-71
2021/08/16 10:02:37;;;;;;;1999.90;999.90;;;;;;;32.34;29.31;95657.28;4988132;28;20204;-71
2021/08/16 10:05:04;;;;;;;1999.90;999.90;;;;;;;32.32;27.08;95656.22;4988186;28;20287;-72
2021/08/16 10:07:35;;;;;;;1999.90;999.90;;;;;;;32.41;26.94;95646.31;4987330;28;20211;-71
2021/08/16 10:10:02;;;;;;;1999.90;999.90;;;;;;;32.50;29.21;95639.50;4987575;28;20183;-71
2021/08/16 10:12:33;;;;;;;1999.90;999.90;;;;;;;32.51;27.08;95641.00;4987441;28;20199;-71
2021/08/16 10:15:01;;;;;;;1999.90;999.90;;;;;;;32.69;27.57;95638.53;4987977;28;20183;-71
2021/08/16 10:17:36;;;;;;;1999.90;999.90;;;;;;;32.88;26.11;95640.97;4987793;28;20203;-70
2021/08/16 10:20:05;;;;;;;1999.90;999.90;;;;;;;32.69;27.44;95633.91;4987611;28;20643;-70
2021/08/16 10:22:37;;;;;;;1999.90;999.90;;;;;;;32.44;26.62;95631.97;4995727;28;20206;-70
2021/08/16 10:25:12;;;;;;;1999.90;999.90;;;;;;;32.82;26.07;95637.34;5006953;28;20190;-70
2021/08/16 10:27:41;;;;;;;1999.90;999.90;;;;;;;33.03;25.61;95625.09;5006507;28;20673;-70
2021/08/16 10:30:10;;;;;;;1999.90;999.90;;;;;;;32.78;25.14;95631.31;5006841;28;20200;-71
2021/08/16 10:32:38;;;;;;;1999.90;999.90;;;;;;;32.58;25.43;95621.97;5007014;28;20206;-71
2021/08/16 10:35:08;;;;;;;1999.90;999.90;;;;;;;32.79;21.30;95626.66;5007323;28;20248;-71
2021/08/16 10:37:39;;;;;;;1999.90;999.90;;;;;;;32.74;21.65;95629.91;5006850;28;20203;-71
2021/08/16 10:40:18;;;;;;;1999.90;999.90;;;;;;;32.77;22.51;95612.91;5007161;28;20210;-71
2021/08/16 10:42:48;;;;;;;1999.90;999.90;;;;;;;33.02;23.48;95618.22;5007038;28;20201;-70
2021/08/16 10:45:25;;;;;;;1999.90;999.90;;;;;;;32.95;25.07;95615.00;5006672;28;20202;-71
2021/08/16 10:48:02;;;;;;;1999.90;999.90;;;;;;;32.76;24.85;95606.75;5006958;28;20274;-71
2021/08/16 10:50:29;;;;;;;1999.90;999.90;;;;;;;32.78;25.37;95609.00;4991340;28;20238;-71
2021/08/16 10:53:01;;;;;;;1999.90;999.90;;;;;;;33.08;24.61;95594.91;4987279;28;20714;-70
2021/08/16 10:55:30;;;;;;;1999.90;999.90;;;;;;;33.22;25.19;95594.47;4987064;28;20199;-71
2021/08/16 10:57:59;;;;;;;1999.90;999.90;;;;;;;33.47;23.59;95600.91;4986875;28;20623;-71